Time;durP1;ratioP1;P1;durP2;ratioP2;P2;SDS_P1;SDS_P2;PMS_P1;PMS_P2;Temp;Humidity;BMP_temperature;BMP_pressure;BME280_temperature;BME280_humidity;BME280_pressure;Samples;Min_cycle;Max_cycle;Signal;HPM_P1;HPM_P2
2023/01/13 00:00:30;;;;;;;6.23;6.03;;;10.30;99.90;;;;;;5064594;28;20914;-71
2023/01/13 00:02:57;;;;;;;6.20;6.00;;;10.30;99.90;;;;;;5066878;28;20498;-71
2023/01/13 00:05:25;;;;;;;6.13;5.93;;;10.20;99.90;;;;;;5069946;28;20470;-71
2023/01/13 00:07:52;;;;;;;6.80;6.50;;;10.10;99.90;;;;;;5067191;28;20462;-70
2023/01/13 00:10:19;;;;;;;6.80;6.50;;;10.00;99.90;;;;;;5062918;28;20467;-71
2023/01/13 00:12:46;;;;;;;6.90;6.60;;;10.00;99.90;;;;;;5064806;28;20715;-71
2023/01/13 00:15:14;;;;;;;7.57;6.93;;;10.00;99.90;;;;;;5061361;28;20562;-71
2023/01/13 00:17:41;;;;;;;6.97;6.60;;;9.90;99.90;;;;;;5068426;28;20470;-70
2023/01/13 00:20:09;;;;;;;6.77;6.47;;;9.90;99.90;;;;;;5062839;28;20470;-71
2023/01/13 00:22:36;;;;;;;6.73;6.43;;;9.90;99.90;;;;;;5065562;28;20995;-69
2023/01/13 00:25:05;;;;;;;7.33;6.87;;;9.90;99.90;;;;;;5066020;28;20596;-71
2023/01/13 00:27:32;;;;;;;6.67;6.27;;;9.90;99.90;;;;;;5064294;28;20462;-70
2023/01/13 00:29:59;;;;;;;7.33;6.63;;;9.90;99.90;;;;;;5067665;28;20458;-70
2023/01/13 00:32:28;;;;;;;6.50;6.30;;;10.00;99.90;;;;;;5063925;28;20466;-71
2023/01/13 00:34:55;;;;;;;6.60;6.20;;;10.00;99.90;;;;;;5065685;28;20852;-70
2023/01/13 00:37:22;;;;;;;6.80;6.23;;;10.00;99.90;;;;;;5056862;28;20959;-72
2023/01/13 00:39:50;;;;;;;11.30;6.43;;;10.00;99.90;;;;;;5070755;28;20639;-70
2023/01/13 00:45:02;;;;;;;7.03;6.43;;;10.10;99.90;;;;;;5067332;28;20512;-71
2023/01/13 00:47:31;;;;;;;6.73;6.20;;;10.10;99.90;;;;;;5071288;28;20455;-70
2023/01/13 00:49:58;;;;;;;6.10;5.90;;;10.10;99.90;;;;;;5065110;28;20555;-71
2023/01/13 00:52:24;;;;;;;6.70;6.40;;;10.10;99.90;;;;;;5062900;28;20847;-70
2023/01/13 00:54:51;;;;;;;7.07;6.73;;;10.10;99.90;;;;;;5065979;28;20686;-70
2023/01/13 00:57:18;;;;;;;7.83;7.40;;;10.20;99.90;;;;;;5064454;28;20462;-70
2023/01/13 00:59:46;;;;;;;8.30;6.90;;;10.20;99.90;;;;;;5060965;28;20466;-69
2023/01/13 01:02:13;;;;;;;7.70;7.10;;;10.20;99.90;;;;;;5062566;28;21046;-72
2023/01/13 01:04:41;;;;;;;8.07;7.67;;;10.20;99.90;;;;;;5063000;28;20493;-69
2023/01/13 01:07:08;;;;;;;8.37;7.97;;;10.20;99.90;;;;;;5063479;28;20474;-72
2023/01/13 01:09:38;;;;;;;9.07;8.57;;;10.20;99.90;;;;;;5057861;28;20467;-70
2023/01/13 01:12:05;;;;;;;8.80;8.30;;;10.20;99.90;;;;;;5063948;28;21161;-70
2023/01/13 01:14:34;;;;;;;8.40;8.00;;;10.20;99.90;;;;;;5067599;28;20856;-70
2023/01/13 01:17:00;;;;;;;10.17;8.77;;;10.20;99.90;;;;;;5064002;28;20459;-72
2023/01/13 01:19:27;;;;;;;9.37;8.70;;;10.20;99.90;;;;;;5055149;28;20466;-72
2023/01/13 01:21:56;;;;;;;11.93;10.83;;;10.20;99.90;;;;;;5070743;28;20461;-71
2023/01/13 01:24:22;;;;;;;13.80;12.40;;;10.20;99.90;;;;;;5071851;28;20470;-70
2023/01/13 01:26:49;;;;;;;13.00;11.50;;;10.00;99.90;;;;;;5064006;28;21020;-69
2023/01/13 01:29:16;;;;;;;13.43;12.07;;;9.80;99.90;;;;;;5059625;28;20463;-71
2023/01/13 01:31:43;;;;;;;14.10;12.87;;;9.80;99.90;;;;;;5052876;28;20454;-70
2023/01/13 01:34:11;;;;;;;13.63;12.80;;;9.70;99.90;;;;;;5061810;28;21003;-71
2023/01/13 01:36:39;;;;;;;14.63;13.50;;;9.50;99.90;;;;;;5064858;28;20477;-70
2023/01/13 01:39:07;;;;;;;14.67;13.47;;;9.40;99.90;;;;;;5063142;28;20833;-70
2023/01/13 01:41:35;;;;;;;13.20;12.33;;;9.30;99.90;;;;;;5066311;28;20470;-71
2023/01/13 01:44:06;;;;;;;13.67;12.60;;;9.30;99.90;;;;;;5064486;28;20485;-72
2023/01/13 01:46:36;;;;;;;13.00;12.30;;;9.20;99.90;;;;;;5067782;28;20557;-72
2023/01/13 01:49:08;;;;;;;12.80;12.00;;;9.20;99.90;;;;;;5066482;28;20464;-71
2023/01/13 01:51:38;;;;;;;13.00;12.30;;;9.20;99.90;;;;;;5061090;28;20480;-71
2023/01/13 01:54:10;;;;;;;13.80;12.80;;;9.20;99.90;;;;;;5065412;28;20805;-69
2023/01/13 01:56:38;;;;;;;13.80;12.97;;;9.10;99.90;;;;;;5064462;28;20922;-70
2023/01/13 01:59:05;;;;;;;13.43;12.77;;;9.00;99.90;;;;;;5061433;28;20535;-69
2023/01/13 02:01:33;;;;;;;13.60;12.80;;;9.00;99.90;;;;;;5066400;28;20469;-70
2023/01/13 02:04:07;;;;;;;13.63;12.83;;;8.90;99.90;;;;;;5061143;28;20455;-70
2023/01/13 02:06:34;;;;;;;13.13;12.53;;;8.90;99.90;;;;;;5067332;28;20469;-71
2023/01/13 02:09:01;;;;;;;13.00;12.23;;;8.80;99.90;;;;;;5068117;28;20994;-72
2023/01/13 02:14:16;;;;;;;13.00;12.30;;;8.70;99.90;;;;;;5068377;28;20673;-71
2023/01/13 02:16:50;;;;;;;13.27;12.37;;;8.70;99.90;;;;;;5061324;28;20474;-72
2023/01/13 02:19:42;;;;;;;13.47;12.33;;;8.70;99.90;;;;;;5062248;28;20491;-72
2023/01/13 02:22:28;;;;;;;13.13;12.23;;;8.60;99.90;;;;;;5068660;28;20459;-70
2023/01/13 02:25:13;;;;;;;13.03;12.13;;;8.60;99.90;;;;;;5064580;28;20577;-71
2023/01/13 02:27:57;;;;;;;13.33;12.40;;;8.50;99.90;;;;;;5054177;28;20462;-70
2023/01/13 02:33:36;;;;;;;12.73;11.93;;;8.40;99.90;;;;;;5061167;28;20463;-70
2023/01/13 02:36:08;;;;;;;14.10;13.10;;;8.40;99.90;;;;;;5063512;28;20456;-70
2023/01/13 02:38:39;;;;;;;12.77;12.00;;;8.30;99.90;;;;;;5058704;28;20464;-69
2023/01/13 02:44:06;;;;;;;12.53;11.63;;;8.20;99.90;;;;;;5065889;28;20484;-72
2023/01/13 02:46:43;;;;;;;12.60;11.80;;;8.20;99.90;;;;;;5069579;28;20475;-72
2023/01/13 02:49:14;;;;;;;12.47;11.73;;;8.10;99.90;;;;;;5069610;28;20456;-69
2023/01/13 02:51:43;;;;;;;12.70;11.97;;;8.10;99.90;;;;;;5068196;28;20958;-70
2023/01/13 02:54:14;;;;;;;12.00;10.97;;;8.10;99.90;;;;;;5055469;28;20489;-71
2023/01/13 02:56:44;;;;;;;13.30;12.10;;;8.10;99.90;;;;;;5064135;28;20476;-69
2023/01/13 02:59:13;;;;;;;12.53;11.63;;;8.10;99.90;;;;;;5066838;28;20474;-70
2023/01/13 03:01:43;;;;;;;12.43;11.63;;;8.10;99.90;;;;;;5059310;28;20469;-70
2023/01/13 03:04:14;;;;;;;15.37;12.50;;;8.10;99.90;;;;;;5066442;28;20479;-69
2023/01/13 03:06:48;;;;;;;13.00;12.10;;;8.10;99.90;;;;;;5061982;28;20472;-71
2023/01/13 03:09:22;;;;;;;12.40;11.60;;;8.10;99.90;;;;;;5064775;28;20888;-72
2023/01/13 03:11:59;;;;;;;12.70;11.77;;;8.10;99.90;;;;;;5060900;28;20561;-71
2023/01/13 03:14:35;;;;;;;12.50;11.20;;;8.10;99.90;;;;;;5063129;28;20498;-72
2023/01/13 03:17:16;;;;;;;21.60;13.43;;;8.10;99.90;;;;;;5064843;28;20475;-73
2023/01/13 03:19:53;;;;;;;12.20;11.20;;;8.10;99.90;;;;;;5066278;28;20873;-72
2023/01/13 03:22:26;;;;;;;12.23;11.23;;;8.00;99.90;;;;;;5064243;28;21039;-72
2023/01/13 03:25:00;;;;;;;13.43;12.20;;;8.00;99.90;;;;;;5066794;28;20467;-72
2023/01/13 03:27:32;;;;;;;13.37;11.50;;;8.00;99.90;;;;;;5067903;28;20964;-72
2023/01/13 03:30:03;;;;;;;15.70;11.67;;;8.00;99.90;;;;;;5064963;28;21116;-71
2023/01/13 03:32:35;;;;;;;11.70;10.70;;;8.00;99.90;;;;;;5063668;28;20915;-70
2023/01/13 03:35:09;;;;;;;12.30;11.40;;;7.90;99.90;;;;;;5061681;28;20500;-70
2023/01/13 03:37:39;;;;;;;12.23;11.40;;;7.90;99.90;;;;;;5072840;28;21034;-69
2023/01/13 03:40:11;;;;;;;11.47;10.53;;;7.90;99.90;;;;;;5067353;28;20574;-70
2023/01/13 03:44:20;;;;;;;12.30;11.30;;;7.80;99.90;;;;;;5064364;28;20459;-71
2023/01/13 03:45:30;;;;;;;13.73;11.07;;;7.90;99.90;;;;;;5060924;28;20536;-71
2023/01/13 03:48:02;;;;;;;18.50;12.03;;;7.90;99.90;;;;;;5073427;28;20450;-71
2023/01/13 03:50:34;;;;;;;13.37;11.37;;;7.90;99.90;;;;;;5060610;28;20996;-71
2023/01/13 03:53:05;;;;;;;13.30;11.90;;;7.90;99.90;;;;;;5061934;28;20461;-72
2023/01/13 03:55:36;;;;;;;12.17;11.27;;;7.90;99.90;;;;;;5070128;28;20497;-70
2023/01/13 03:58:09;;;;;;;12.70;11.23;;;7.80;99.90;;;;;;5069613;28;20475;-70
2023/01/13 04:00:42;;;;;;;15.93;11.50;;;7.80;99.90;;;;;;5061300;28;21271;-71
2023/01/13 04:03:14;;;;;;;14.33;13.07;;;7.80;99.90;;;;;;5068351;28;20463;-71
2023/01/13 04:05:46;;;;;;;11.73;10.73;;;7.80;99.90;;;;;;5066457;28;20890;-71
2023/01/13 04:08:19;;;;;;;11.30;10.37;;;7.70;99.90;;;;;;5066096;28;20469;-73
2023/01/13 04:10:52;;;;;;;14.30;11.13;;;7.70;99.90;;;;;;5062753;28;20750;-70
2023/01/13 04:13:21;;;;;;;13.57;11.17;;;7.70;99.90;;;;;;5068299;28;20809;-70
2023/01/13 04:15:49;;;;;;;13.53;10.77;;;7.70;99.90;;;;;;5069400;28;21020;-72
2023/01/13 04:18:21;;;;;;;11.30;10.40;;;7.60;99.90;;;;;;5063997;28;20547;-69
2023/01/13 04:20:51;;;;;;;11.13;10.37;;;7.70;99.90;;;;;;5063198;28;21175;-69
2023/01/13 04:23:18;;;;;;;12.03;10.80;;;7.60;99.90;;;;;;5067901;28;20525;-70
2023/01/13 04:25:46;;;;;;;13.93;10.87;;;7.60;99.90;;;;;;5075312;28;20465;-72
2023/01/13 04:28:14;;;;;;;13.90;12.40;;;7.70;99.90;;;;;;5063316;28;20758;-71
2023/01/13 04:30:41;;;;;;;12.20;10.90;;;7.70;99.90;;;;;;5060544;28;20467;-70
2023/01/13 04:33:09;;;;;;;13.20;11.80;;;7.70;99.90;;;;;;5067070;28;21009;-70
2023/01/13 04:35:37;;;;;;;13.97;11.87;;;7.70;99.90;;;;;;5068311;28;20489;-70
2023/01/13 04:38:06;;;;;;;12.63;11.63;;;7.70;99.90;;;;;;5066734;28;20466;-72
2023/01/13 04:40:32;;;;;;;14.10;12.00;;;7.80;99.90;;;;;;5075741;28;21047;-72
2023/01/13 04:42:59;;;;;;;13.57;12.27;;;7.90;99.90;;;;;;5066351;28;20467;-70
2023/01/13 04:45:26;;;;;;;22.70;13.10;;;8.00;99.90;;;;;;5066316;28;20490;-72
2023/01/13 04:47:54;;;;;;;16.80;11.27;;;8.10;99.90;;;;;;5068815;28;20873;-72
2023/01/13 04:50:21;;;;;;;16.77;12.43;;;8.10;99.90;;;;;;5059243;28;20477;-72
2023/01/13 04:52:50;;;;;;;27.13;12.50;;;8.20;99.90;;;;;;5063752;28;20495;-70
2023/01/13 04:55:19;;;;;;;15.90;12.00;;;8.20;99.90;;;;;;5071879;28;20492;-71
2023/01/13 04:57:45;;;;;;;19.83;13.43;;;8.20;99.90;;;;;;5066423;28;20474;-72
2023/01/13 05:00:15;;;;;;;12.73;11.60;;;8.20;99.90;;;;;;5058374;28;20456;-71
2023/01/13 05:02:43;;;;;;;12.90;12.10;;;8.20;99.90;;;;;;5064945;28;20493;-71
2023/01/13 05:05:10;;;;;;;11.67;10.80;;;8.20;99.90;;;;;;5063110;28;20457;-72
2023/01/13 05:07:37;;;;;;;15.13;11.90;;;8.10;99.90;;;;;;5068816;28;20473;-70
2023/01/13 05:10:06;;;;;;;16.17;12.67;;;8.10;99.90;;;;;;5064763;28;20469;-72
2023/01/13 05:18:02;;;;;;;12.93;11.60;;;8.00;99.90;;;;;;5057572;28;20458;-72
2023/01/13 05:20:29;;;;;;;16.57;11.33;;;7.90;99.90;;;;;;5055412;28;20564;-71
2023/01/13 05:25:42;;;;;;;13.73;12.43;;;7.90;99.90;;;;;;5072966;28;20527;-71
2023/01/13 05:28:10;;;;;;;12.97;12.00;;;7.90;99.90;;;;;;5067159;28;20524;-70
2023/01/13 05:30:41;;;;;;;12.20;11.00;;;7.90;99.90;;;;;;5065900;28;20956;-73
2023/01/13 05:33:08;;;;;;;12.93;11.60;;;7.90;99.90;;;;;;5056662;28;20455;-69
2023/01/13 05:35:37;;;;;;;12.90;11.57;;;7.90;99.90;;;;;;5070252;28;20577;-71
2023/01/13 05:38:03;;;;;;;11.93;11.00;;;7.90;99.90;;;;;;5069666;28;20469;-71
2023/01/13 05:43:23;;;;;;;13.87;12.67;;;7.90;99.90;;;;;;5058405;28;20466;-71
2023/01/13 05:45:52;;;;;;;13.73;12.20;;;7.90;99.90;;;;;;5058458;28;20473;-68
2023/01/13 05:48:21;;;;;;;13.40;12.03;;;7.90;99.90;;;;;;5065589;28;20961;-69
2023/01/13 05:50:49;;;;;;;12.87;11.97;;;7.90;99.90;;;;;;5065902;28;20458;-72
2023/01/13 05:53:16;;;;;;;11.97;11.00;;;7.90;99.90;;;;;;5063003;28;20598;-71
2023/01/13 05:55:44;;;;;;;12.90;12.07;;;7.90;99.90;;;;;;5066294;28;20992;-71
2023/01/13 05:58:12;;;;;;;12.70;11.60;;;8.00;99.90;;;;;;5065542;28;20464;-71
2023/01/13 06:00:41;;;;;;;14.03;12.60;;;8.20;99.90;;;;;;5059100;28;20593;-70
2023/01/13 06:03:08;;;;;;;20.83;12.27;;;8.20;99.90;;;;;;5063127;28;20486;-72
2023/01/13 06:05:36;;;;;;;11.43;10.83;;;8.30;99.90;;;;;;5068556;28;20470;-72
2023/01/13 06:08:04;;;;;;;12.23;11.30;;;8.30;99.90;;;;;;5066241;28;20920;-70
2023/01/13 06:10:31;;;;;;;12.27;11.27;;;8.30;99.90;;;;;;5063953;28;20493;-72
2023/01/13 06:12:58;;;;;;;13.53;12.30;;;8.30;99.90;;;;;;5061718;28;20538;-71
2023/01/13 06:15:25;;;;;;;14.30;11.20;;;8.30;99.90;;;;;;5062145;28;20523;-70
2023/01/13 06:17:55;;;;;;;11.63;10.87;;;8.30;99.90;;;;;;5060612;28;20462;-71
2023/01/13 06:20:22;;;;;;;14.13;12.83;;;8.20;99.90;;;;;;5062722;28;21026;-71
2023/01/13 06:22:50;;;;;;;11.70;10.90;;;8.20;99.90;;;;;;5067564;28;20484;-69
2023/01/13 06:25:23;;;;;;;13.37;11.80;;;8.10;99.90;;;;;;5059769;28;20476;-70
2023/01/13 06:27:51;;;;;;;11.50;10.80;;;8.10;99.90;;;;;;5056886;28;20966;-72
2023/01/13 06:30:18;;;;;;;12.20;11.40;;;8.20;99.90;;;;;;5072363;28;20465;-71
2023/01/13 06:32:50;;;;;;;11.83;10.77;;;8.20;99.90;;;;;;5063974;28;20459;-70
2023/01/13 06:35:23;;;;;;;12.33;11.03;;;8.10;99.90;;;;;;5061767;28;20474;-72
2023/01/13 06:37:52;;;;;;;11.47;10.37;;;8.10;99.90;;;;;;5059741;28;20472;-69
2023/01/13 06:40:19;;;;;;;11.07;10.40;;;8.10;99.90;;;;;;5061303;28;20491;-72
2023/01/13 06:45:32;;;;;;;11.93;11.10;;;8.00;99.90;;;;;;5070823;28;20495;-71
2023/01/13 06:47:59;;;;;;;13.13;12.00;;;7.90;99.90;;;;;;5068389;28;20486;-70
2023/01/13 06:50:29;;;;;;;13.77;12.07;;;7.90;99.90;;;;;;5065579;28;20462;-70
2023/01/13 06:52:56;;;;;;;15.60;11.80;;;8.00;99.90;;;;;;5065690;28;20455;-71
2023/01/13 06:55:22;;;;;;;12.97;12.00;;;7.90;99.90;;;;;;5070563;28;20492;-72
2023/01/13 06:57:51;;;;;;;13.23;12.33;;;8.00;99.90;;;;;;5067878;28;20516;-72
2023/01/13 07:00:18;;;;;;;14.70;13.00;;;8.00;99.90;;;;;;5067338;28;20829;-69
2023/01/13 07:02:46;;;;;;;14.13;12.87;;;8.00;99.90;;;;;;5066628;28;20469;-70
2023/01/13 07:05:13;;;;;;;12.93;12.03;;;8.00;99.90;;;;;;5065838;28;20539;-69
2023/01/13 07:07:41;;;;;;;12.87;12.00;;;8.00;99.90;;;;;;5063596;28;20451;-71
2023/01/13 07:10:11;;;;;;;13.77;12.53;;;7.90;99.90;;;;;;5071730;28;20463;-72
2023/01/13 07:15:20;;;;;;;13.77;12.63;;;7.90;99.90;;;;;;5060747;28;20488;-71
2023/01/13 07:17:47;;;;;;;12.93;12.00;;;7.90;99.90;;;;;;5069299;28;20466;-69
2023/01/13 07:20:14;;;;;;;14.33;13.27;;;7.80;99.90;;;;;;5067331;28;20943;-72
2023/01/13 07:22:43;;;;;;;14.20;12.93;;;7.80;99.90;;;;;;5066352;28;20464;-73
2023/01/13 07:25:11;;;;;;;13.50;12.40;;;7.80;99.90;;;;;;5069545;28;20470;-71
2023/01/13 07:27:39;;;;;;;12.87;12.07;;;7.80;99.90;;;;;;5068162;28;20460;-71
2023/01/13 07:30:07;;;;;;;13.33;12.20;;;7.70;99.90;;;;;;5070225;28;20466;-71
2023/01/13 07:32:34;;;;;;;13.23;12.10;;;7.70;99.90;;;;;;5063959;28;20825;-72
2023/01/13 07:35:04;;;;;;;13.57;12.40;;;7.70;99.90;;;;;;5068008;28;20457;-69
2023/01/13 07:37:32;;;;;;;12.97;12.10;;;7.70;99.90;;;;;;5059853;28;20818;-72
2023/01/13 07:40:00;;;;;;;12.70;11.80;;;7.60;99.90;;;;;;5064024;28;20490;-72
2023/01/13 07:45:12;;;;;;;12.30;11.40;;;7.50;99.90;;;;;;5066077;28;20475;-70
2023/01/13 07:47:39;;;;;;;12.57;11.50;;;7.50;99.90;;;;;;5065721;28;20546;-70
2023/01/13 07:50:08;;;;;;;12.40;11.60;;;7.50;99.90;;;;;;5064326;28;20804;-72
2023/01/13 07:52:35;;;;;;;11.80;10.90;;;7.50;99.90;;;;;;5067186;28;20823;-72
2023/01/13 07:55:04;;;;;;;13.37;12.27;;;7.50;99.90;;;;;;5067815;28;20488;-72
2023/01/13 07:57:31;;;;;;;11.73;10.90;;;7.40;99.90;;;;;;5069229;28;20473;-71
2023/01/13 07:59:57;;;;;;;11.87;11.07;;;7.50;99.90;;;;;;5064063;28;20472;-72
2023/01/13 08:02:24;;;;;;;11.60;10.80;;;7.50;99.90;;;;;;5060097;28;20467;-73
2023/01/13 08:04:51;;;;;;;12.03;11.10;;;7.50;99.90;;;;;;5066545;28;20486;-72
2023/01/13 08:07:17;;;;;;;20.27;11.83;;;7.50;99.90;;;;;;5068222;28;20477;-70
2023/01/13 08:09:44;;;;;;;11.53;10.63;;;7.50;99.90;;;;;;5059666;28;20472;-70
2023/01/13 08:14:56;;;;;;;12.40;11.10;;;7.60;99.90;;;;;;5061483;28;20462;-71
2023/01/13 08:17:23;;;;;;;12.73;11.50;;;7.70;99.90;;;;;;5063318;28;20499;-70
2023/01/13 08:19:51;;;;;;;13.23;11.83;;;7.80;99.90;;;;;;5061949;28;20564;-71
2023/01/13 08:22:17;;;;;;;17.47;13.27;;;7.90;99.90;;;;;;5065636;28;20481;-72
2023/01/13 08:24:44;;;;;;;18.07;13.77;;;7.90;99.90;;;;;;5067884;28;20517;-72
2023/01/13 08:27:13;;;;;;;19.10;12.50;;;8.00;99.90;;;;;;5057784;28;20471;-72
2023/01/13 08:29:40;;;;;;;13.03;11.77;;;8.20;99.90;;;;;;5062595;28;21063;-70
2023/01/13 08:32:07;;;;;;;14.77;12.33;;;8.20;99.90;;;;;;5066954;28;20471;-69
2023/01/13 08:34:36;;;;;;;13.70;12.70;;;8.20;99.90;;;;;;5063037;28;20468;-71
2023/01/13 08:37:03;;;;;;;18.90;13.67;;;8.20;99.90;;;;;;5060593;28;20523;-72
2023/01/13 08:39:30;;;;;;;13.90;12.60;;;8.10;99.90;;;;;;5063890;28;20478;-71
2023/01/13 08:41:57;;;;;;;14.33;13.00;;;8.10;99.90;;;;;;5067443;28;20469;-72
2023/01/13 08:44:28;;;;;;;14.30;13.00;;;8.10;99.90;;;;;;5060265;28;20512;-75
2023/01/13 08:46:55;;;;;;;14.43;12.97;;;8.00;99.90;;;;;;5063668;28;20527;-70
2023/01/13 08:49:23;;;;;;;14.93;13.33;;;8.10;99.90;;;;;;5075537;28;21091;-69
2023/01/13 08:51:50;;;;;;;18.73;16.20;;;8.00;99.90;;;;;;5071545;28;20896;-72
2023/01/13 08:54:18;;;;;;;20.77;13.33;;;8.10;99.90;;;;;;5066532;28;20717;-72
2023/01/13 08:56:46;;;;;;;14.97;13.53;;;8.20;99.90;;;;;;5066710;28;20952;-69
2023/01/13 08:59:13;;;;;;;20.57;14.43;;;8.30;99.90;;;;;;5063778;28;20958;-69
2023/01/13 09:01:42;;;;;;;16.93;15.33;;;8.40;99.90;;;;;;5060136;28;20462;-70
2023/01/13 09:04:16;;;;;;;19.57;13.93;;;8.40;99.90;;;;;;5063421;28;20971;-72
2023/01/13 09:06:43;;;;;;;15.93;14.30;;;8.50;99.90;;;;;;5062787;28;20590;-72
2023/01/13 09:09:10;;;;;;;21.10;14.40;;;8.50;99.90;;;;;;5063704;28;20467;-71
2023/01/13 09:14:27;;;;;;;22.40;14.77;;;8.60;99.90;;;;;;5054453;28;20846;-71
2023/01/13 09:16:55;;;;;;;19.50;14.33;;;8.60;99.90;;;;;;5067134;28;20547;-72
2023/01/13 09:19:22;;;;;;;15.63;14.07;;;8.60;99.90;;;;;;5057206;28;20458;-70
2023/01/13 09:21:48;;;;;;;16.53;14.33;;;8.70;99.90;;;;;;5066108;28;20469;-71
2023/01/13 09:24:15;;;;;;;16.57;14.97;;;8.70;99.90;;;;;;5060526;28;20459;-72
2023/01/13 09:26:42;;;;;;;29.77;15.20;;;8.80;99.90;;;;;;5064055;28;20462;-73
2023/01/13 09:29:09;;;;;;;16.07;14.63;;;8.90;99.90;;;;;;5065348;28;20551;-73
2023/01/13 09:31:36;;;;;;;21.57;14.60;;;8.90;99.90;;;;;;5053118;28;20456;-72
2023/01/13 09:36:50;;;;;;;23.37;15.93;;;9.00;99.90;;;;;;5058380;28;20490;-73
2023/01/13 09:39:17;;;;;;;16.17;14.63;;;8.80;99.90;;;;;;5060475;28;20853;-74
2023/01/13 09:44:41;;;;;;;23.70;16.03;;;8.70;99.90;;;;;;5059547;28;20491;-73
2023/01/13 09:47:15;;;;;;;16.07;14.70;;;8.80;99.90;;;;;;5059247;28;20981;-71
2023/01/13 09:49:44;;;;;;;18.80;14.97;;;8.90;99.90;;;;;;5064940;28;20562;-72
2023/01/13 09:52:14;;;;;;;17.60;15.90;;;9.00;99.90;;;;;;5066831;28;20993;-71
2023/01/13 09:54:44;;;;;;;16.57;14.90;;;9.10;99.90;;;;;;5067878;28;21032;-73
2023/01/13 09:57:13;;;;;;;17.80;15.93;;;9.10;99.90;;;;;;5065522;28;20484;-73
2023/01/13 09:59:41;;;;;;;17.80;15.10;;;9.00;99.90;;;;;;5060085;28;20473;-72
2023/01/13 10:02:32;;;;;;;22.10;15.73;;;9.10;99.90;;;;;;5061769;28;20469;-74
2023/01/13 10:05:13;;;;;;;20.37;16.60;;;9.30;99.90;;;;;;5062657;28;20604;-71
2023/01/13 10:07:47;;;;;;;16.87;15.30;;;9.40;99.90;;;;;;5066579;28;20839;-75
2023/01/13 10:10:18;;;;;;;27.30;17.20;;;9.40;99.90;;;;;;5062981;28;20462;-75
2023/01/13 10:15:32;;;;;;;19.83;16.63;;;9.40;99.90;;;;;;5067987;28;20478;-74
2023/01/13 10:18:09;;;;;;;17.43;15.60;;;9.50;99.90;;;;;;5059582;28;20546;-73
2023/01/13 10:20:47;;;;;;;21.27;16.87;;;9.50;99.90;;;;;;5067268;28;20468;-71
2023/01/13 10:23:34;;;;;;;19.57;16.20;;;9.60;99.90;;;;;;5066260;28;20472;-71
2023/01/13 10:26:10;;;;;;;18.43;16.57;;;9.60;99.90;;;;;;5066127;28;20545;-72
2023/01/13 10:28:37;;;;;;;17.27;15.67;;;9.50;99.90;;;;;;5067962;28;20461;-71
2023/01/13 10:31:12;;;;;;;16.97;15.30;;;9.40;99.90;;;;;;5070671;28;20469;-71
2023/01/13 10:33:39;;;;;;;17.07;15.77;;;9.50;99.90;;;;;;5071537;28;20830;-73
2023/01/13 10:36:16;;;;;;;16.93;15.27;;;9.50;99.90;;;;;;5066047;28;20490;-74
2023/01/13 10:38:45;;;;;;;18.40;16.37;;;9.40;99.90;;;;;;5061527;28;20466;-74
2023/01/13 10:41:22;;;;;;;19.40;15.93;;;9.50;99.90;;;;;;5067829;28;20501;-72
2023/01/13 10:43:59;;;;;;;21.87;16.53;;;9.50;99.90;;;;;;5064524;28;20484;-71
2023/01/13 10:46:27;;;;;;;17.67;15.80;;;9.60;99.90;;;;;;5068799;28;20515;-71
2023/01/13 10:48:55;;;;;;;18.60;16.10;;;9.60;99.90;;;;;;5070964;28;20466;-72
2023/01/13 10:51:27;;;;;;;17.43;15.60;;;9.60;99.90;;;;;;5064886;28;20968;-73
2023/01/13 10:53:56;;;;;;;17.33;15.80;;;9.70;99.90;;;;;;5064445;28;20470;-75
2023/01/13 10:56:26;;;;;;;21.70;16.30;;;9.70;99.90;;;;;;5064655;28;20614;-71
2023/01/13 10:58:52;;;;;;;16.67;15.23;;;9.70;99.90;;;;;;5061693;28;20519;-74
2023/01/13 11:01:25;;;;;;;17.93;15.80;;;9.60;99.90;;;;;;5063317;28;20881;-73
2023/01/13 11:03:54;;;;;;;17.33;15.70;;;9.70;99.90;;;;;;5064913;28;20462;-72
2023/01/13 11:06:25;;;;;;;17.97;16.27;;;9.70;99.90;;;;;;5065703;28;20468;-72
2023/01/13 11:08:56;;;;;;;18.80;16.17;;;9.70;99.90;;;;;;5062341;28;20869;-73
2023/01/13 11:11:37;;;;;;;16.67;15.20;;;9.80;99.90;;;;;;5066137;28;20494;-73
2023/01/13 11:17:00;;;;;;;16.00;14.60;;;9.80;99.90;;;;;;5065178;28;20538;-73
2023/01/13 11:19:30;;;;;;;17.27;15.80;;;9.80;99.90;;;;;;5073827;28;20508;-70
2023/01/13 11:22:07;;;;;;;17.93;15.70;;;9.80;99.90;;;;;;5069675;28;20838;-74
2023/01/13 11:24:38;;;;;;;18.03;16.30;;;9.80;99.90;;;;;;5064152;28;20488;-71
2023/01/13 11:27:18;;;;;;;18.63;15.97;;;9.80;99.90;;;;;;5065709;28;20498;-74
2023/01/13 11:29:56;;;;;;;18.30;15.60;;;9.70;99.90;;;;;;5062384;28;20971;-71
2023/01/13 11:32:25;;;;;;;19.30;16.47;;;9.60;99.90;;;;;;5058209;28;20457;-73
2023/01/13 11:34:56;;;;;;;18.20;16.30;;;9.60;99.90;;;;;;5063887;28;20466;-73
2023/01/13 11:37:26;;;;;;;17.40;15.43;;;9.70;99.90;;;;;;5065570;28;20498;-73
2023/01/13 11:40:02;;;;;;;17.13;15.80;;;9.80;99.90;;;;;;5068544;28;20485;-73
2023/01/13 11:42:36;;;;;;;20.23;16.20;;;9.90;99.90;;;;;;5066218;28;20459;-75
2023/01/13 11:45:15;;;;;;;21.23;16.43;;;10.00;99.90;;;;;;5065546;28;20508;-73
2023/01/13 11:47:43;;;;;;;18.17;16.37;;;10.10;99.90;;;;;;5062586;28;20457;-71
2023/01/13 11:50:17;;;;;;;18.07;16.07;;;10.00;99.90;;;;;;5064126;28;20475;-73
2023/01/13 11:53:04;;;;;;;21.17;16.27;;;9.80;99.90;;;;;;5063142;28;20461;-75
2023/01/13 11:55:38;;;;;;;17.27;15.67;;;9.70;99.90;;;;;;5069676;28;20459;-73
2023/01/13 11:58:32;;;;;;;22.13;16.03;;;9.80;99.90;;;;;;5066820;28;20494;-74
2023/01/13 12:01:12;;;;;;;16.77;15.27;;;9.80;99.90;;;;;;5061116;28;22304;-72
2023/01/13 12:03:42;;;;;;;20.37;16.83;;;9.90;99.90;;;;;;5067232;28;20454;-73
2023/01/13 12:06:19;;;;;;;27.00;16.10;;;9.60;99.90;;;;;;5068455;28;20462;-71
2023/01/13 12:09:15;;;;;;;21.90;15.40;;;9.50;99.90;;;;;;5065797;28;20455;-69
2023/01/13 12:14:49;;;;;;;16.37;14.70;;;9.60;99.90;;;;;;5060438;28;20497;-71
2023/01/13 12:17:26;;;;;;;17.40;15.60;;;9.90;99.90;;;;;;5062066;28;20491;-72
2023/01/13 12:19:53;;;;;;;20.03;15.97;;;9.80;99.90;;;;;;5063133;28;20553;-71
2023/01/13 12:22:25;;;;;;;18.10;16.40;;;9.60;99.90;;;;;;5063580;28;20489;-73
2023/01/13 12:24:57;;;;;;;24.00;17.83;;;9.30;99.90;;;;;;5063757;28;20463;-69
2023/01/13 12:27:33;;;;;;;26.50;20.40;;;9.00;99.90;;;;;;5071670;28;20512;-70
2023/01/13 12:30:04;;;;;;;28.90;24.20;;;8.90;99.90;;;;;;5059138;28;20468;-71
2023/01/13 12:32:36;;;;;;;22.80;20.90;;;8.40;99.90;;;;;;5058607;28;20464;-69
2023/01/13 12:35:22;;;;;;;28.00;21.13;;;8.10;99.90;;;;;;5059711;28;20463;-71
2023/01/13 12:37:57;;;;;;;21.27;19.47;;;7.90;99.90;;;;;;5065642;28;20494;-71
2023/01/13 12:40:40;;;;;;;20.60;18.40;;;7.70;99.90;;;;;;5069915;28;20476;-71
2023/01/13 12:46:31;;;;;;;17.53;16.20;;;7.80;99.90;;;;;;5067672;28;20463;-73
2023/01/13 12:49:17;;;;;;;18.60;16.70;;;7.80;99.90;;;;;;5051404;28;21050;-71
2023/01/13 12:52:14;;;;;;;18.67;15.90;;;7.90;99.90;;;;;;5063282;28;20454;-73
2023/01/13 12:55:01;;;;;;;16.80;15.50;;;8.00;99.90;;;;;;5061741;28;20945;-72
2023/01/13 12:57:32;;;;;;;18.70;17.10;;;8.10;99.90;;;;;;5063677;28;20495;-73
2023/01/13 13:00:17;;;;;;;19.60;16.43;;;8.10;99.90;;;;;;5060357;28;20519;-72
2023/01/13 13:03:22;;;;;;;17.43;15.40;;;8.00;99.90;;;;;;5059450;28;20498;-71
2023/01/13 13:05:57;;;;;;;23.50;15.37;;;8.00;99.90;;;;;;5067438;28;20462;-71
2023/01/13 13:08:39;;;;;;;22.30;15.30;;;8.00;99.90;;;;;;5064481;28;20464;-74
2023/01/13 13:14:11;;;;;;;14.67;13.00;;;8.10;99.90;;;;;;5056849;28;20500;-73
2023/01/13 13:16:59;;;;;;;20.13;13.70;;;8.20;99.90;;;;;;5049149;28;20479;-72
2023/01/13 13:19:47;;;;;;;15.90;12.30;;;8.30;99.90;;;;;;5061674;28;20517;-73
2023/01/13 13:22:43;;;;;;;17.13;14.37;;;8.60;99.90;;;;;;5070124;28;20808;-74
2023/01/13 13:25:27;;;;;;;13.37;11.87;;;8.60;99.90;;;;;;5071169;28;21051;-69
2023/01/13 13:28:21;;;;;;;18.67;13.80;;;8.80;99.90;;;;;;5062161;28;20544;-72
2023/01/13 13:31:05;;;;;;;16.33;12.57;;;8.70;99.90;;;;;;5050355;28;20973;-71
2023/01/13 13:33:45;;;;;;;15.17;11.93;;;8.70;99.90;;;;;;5065394;28;20472;-72
2023/01/13 13:36:30;;;;;;;13.33;12.33;;;8.70;99.90;;;;;;5056601;28;20912;-71
2023/01/13 13:47:41;;;;;;;13.73;10.97;;;8.70;99.90;;;;;;5057631;28;20466;-70
2023/01/13 13:50:12;;;;;;;12.73;11.17;;;8.70;99.90;;;;;;5068305;28;20463;-73
2023/01/13 13:52:44;;;;;;;21.33;10.60;;;8.80;99.90;;;;;;5061509;28;20494;-73
2023/01/13 13:55:18;;;;;;;16.20;9.30;;;8.80;99.90;;;;;;5061394;28;20464;-72
2023/01/13 13:57:48;;;;;;;13.50;10.70;;;8.80;99.90;;;;;;5057648;28;20504;-72
2023/01/13 14:00:24;;;;;;;12.40;10.57;;;8.90;99.90;;;;;;5058684;28;20463;-71
2023/01/13 14:02:54;;;;;;;21.40;10.03;;;8.80;99.90;;;;;;5060042;28;20466;-73